Time;durP1;ratioP1;P1;durP2;ratioP2;P2;SDS_P1;SDS_P2;PMS_P1;PMS_P2;Temp;Humidity;BMP_temperature;BMP_pressure;BME280_temperature;BME280_humidity;BME280_pressure;Samples;Min_cycle;Max_cycle;Signal;HPM_P1;HPM_P2
2022/05/16 00:01:53;;;;;;;4.77;2.53;;;13.70;99.90;;;;;;5155438;27;20169;-68
2022/05/16 00:04:18;;;;;;;6.33;2.20;;;13.60;99.90;;;;;;5154974;27;20193;-68
2022/05/16 00:06:44;;;;;;;7.83;2.27;;;13.80;99.90;;;;;;5155057;27;20648;-69
2022/05/16 00:09:10;;;;;;;5.50;2.60;;;13.60;99.90;;;;;;5154554;27;20173;-68
2022/05/16 00:11:35;;;;;;;6.23;2.83;;;13.70;99.90;;;;;;5155388;27;20165;-68
2022/05/16 00:14:01;;;;;;;4.83;2.80;;;13.60;99.90;;;;;;5154978;27;20544;-69
2022/05/16 00:16:27;;;;;;;8.93;3.27;;;13.70;99.90;;;;;;5155229;27;20236;-70
2022/05/16 00:18:53;;;;;;;4.90;2.80;;;13.60;99.90;;;;;;5155512;27;20200;-69
2022/05/16 00:21:19;;;;;;;4.33;2.40;;;13.30;99.90;;;;;;5155140;27;20241;-67
2022/05/16 00:23:45;;;;;;;2.97;2.23;;;13.20;99.90;;;;;;5155393;27;20578;-69
2022/05/16 00:26:11;;;;;;;2.90;2.17;;;13.10;99.90;;;;;;5156109;27;20213;-68
2022/05/16 00:28:37;;;;;;;3.70;2.27;;;13.20;99.90;;;;;;5155168;27;20180;-71
2022/05/16 00:31:04;;;;;;;3.70;2.30;;;13.20;99.90;;;;;;5155302;27;20161;-68
2022/05/16 00:33:30;;;;;;;2.60;2.13;;;13.10;99.90;;;;;;5155652;27;20273;-69
2022/05/16 00:35:56;;;;;;;6.30;2.47;;;13.00;99.90;;;;;;5155625;27;20198;-69
2022/05/16 00:38:21;;;;;;;2.47;1.90;;;13.00;99.90;;;;;;5164417;27;20161;-68
2022/05/16 00:40:47;;;;;;;2.60;2.03;;;12.90;99.90;;;;;;5174866;27;20168;-71
2022/05/16 00:43:13;;;;;;;3.90;2.10;;;12.80;99.90;;;;;;5156504;27;20524;-69
2022/05/16 00:45:40;;;;;;;5.30;1.93;;;12.80;99.90;;;;;;5155032;27;20165;-68
2022/05/16 00:48:06;;;;;;;2.40;1.87;;;12.90;99.90;;;;;;5154835;27;20244;-68
2022/05/16 00:50:39;;;;;;;4.80;2.17;;;12.90;99.90;;;;;;5155466;27;20161;-67
2022/05/16 00:53:06;;;;;;;5.20;1.83;;;13.00;99.90;;;;;;5156435;27;20165;-68
2022/05/16 00:55:36;;;;;;;2.43;1.80;;;12.70;99.90;;;;;;5155342;27;20283;-69
2022/05/16 00:58:08;;;;;;;3.87;2.23;;;12.70;99.90;;;;;;5154989;27;20165;-68
2022/05/16 01:00:38;;;;;;;5.00;2.20;;;12.80;99.90;;;;;;5154467;27;20165;-68
2022/05/16 01:06:02;;;;;;;5.00;2.20;;;12.70;99.90;;;;;;5154354;27;20235;-69
2022/05/16 01:08:31;;;;;;;3.93;2.27;;;12.60;99.90;;;;;;5154754;27;20160;-69
2022/05/16 01:11:01;;;;;;;3.20;1.90;;;12.50;99.90;;;;;;5154415;27;20227;-68
2022/05/16 01:13:30;;;;;;;4.07;2.27;;;12.60;99.90;;;;;;5154681;27;20194;-69
2022/05/16 01:15:58;;;;;;;4.13;2.00;;;12.80;99.90;;;;;;5154891;27;20153;-70
2022/05/16 01:18:26;;;;;;;5.93;2.13;;;12.90;99.90;;;;;;5154414;27;20161;-68
2022/05/16 01:21:18;;;;;;;4.93;2.00;;;12.90;99.90;;;;;;5155845;27;20190;-68
2022/05/16 01:23:55;;;;;;;2.60;2.30;;;12.80;99.90;;;;;;5157912;27;20165;-70
2022/05/16 01:26:24;;;;;;;4.53;2.03;;;12.70;99.90;;;;;;5158155;27;20158;-68
2022/05/16 01:28:51;;;;;;;4.07;2.17;;;12.50;99.90;;;;;;5158604;27;20190;-67
2022/05/16 01:31:17;;;;;;;5.07;2.30;;;12.30;99.90;;;;;;5157985;27;20165;-68
2022/05/16 01:33:43;;;;;;;2.20;1.93;;;12.40;99.90;;;;;;5140190;27;20208;-69
2022/05/16 01:36:09;;;;;;;3.10;2.00;;;12.40;99.90;;;;;;5158351;27;20201;-68
2022/05/16 01:38:35;;;;;;;4.10;2.27;;;12.20;99.90;;;;;;5161039;27;20189;-69
2022/05/16 01:41:04;;;;;;;5.53;1.90;;;12.10;99.90;;;;;;5160975;27;20153;-66
2022/05/16 01:43:38;;;;;;;3.40;2.20;;;12.10;99.90;;;;;;5158985;27;20165;-69
2022/05/16 01:46:05;;;;;;;3.43;2.27;;;12.00;99.90;;;;;;5157750;27;20160;-68
2022/05/16 01:48:31;;;;;;;4.93;2.10;;;12.00;99.90;;;;;;5158060;27;20161;-68
2022/05/16 01:51:00;;;;;;;3.30;2.03;;;12.00;99.90;;;;;;5157793;27;20161;-69
2022/05/16 01:53:25;;;;;;;3.43;2.30;;;12.10;99.90;;;;;;5138999;27;20263;-69
2022/05/16 01:55:51;;;;;;;5.70;2.50;;;12.20;99.90;;;;;;5157908;27;20188;-68
2022/05/16 01:58:16;;;;;;;2.77;2.03;;;12.10;99.90;;;;;;5158583;27;20160;-68
2022/05/16 02:00:43;;;;;;;5.37;2.20;;;12.20;99.90;;;;;;5158203;27;20210;-69
2022/05/16 02:03:10;;;;;;;2.37;1.90;;;12.10;99.90;;;;;;5158505;27;20608;-68
2022/05/16 02:05:36;;;;;;;3.37;2.17;;;11.80;99.90;;;;;;5158223;27;20660;-68
2022/05/16 02:08:02;;;;;;;4.57;2.30;;;11.80;99.90;;;;;;5139260;27;20671;-68
2022/05/16 02:10:28;;;;;;;3.13;2.07;;;12.00;99.90;;;;;;5159831;27;20163;-68
2022/05/16 02:12:59;;;;;;;3.93;1.87;;;12.10;99.90;;;;;;5159739;27;20608;-67
2022/05/16 02:15:28;;;;;;;7.30;2.50;;;12.10;99.90;;;;;;5142110;27;20211;-67
2022/05/16 02:17:54;;;;;;;3.13;2.20;;;12.10;99.90;;;;;;5142792;27;20181;-67
2022/05/16 02:20:20;;;;;;;2.80;2.30;;;11.90;99.90;;;;;;5140288;27;20162;-66
2022/05/16 02:25:37;;;;;;;3.77;2.40;;;11.70;99.90;;;;;;5138255;27;20245;-69
2022/05/16 02:28:05;;;;;;;2.20;2.00;;;11.90;99.90;;;;;;5136833;27;20597;-69
2022/05/16 02:30:31;;;;;;;4.20;2.20;;;11.90;99.90;;;;;;5137585;27;20188;-66
2022/05/16 02:32:57;;;;;;;4.10;2.70;;;11.90;99.90;;;;;;5136662;27;20680;-69
2022/05/16 02:35:23;;;;;;;4.30;2.63;;;12.00;99.90;;;;;;5136595;27;20197;-67
2022/05/16 02:37:49;;;;;;;4.00;2.80;;;11.70;99.90;;;;;;5136419;27;20154;-68
2022/05/16 02:40:16;;;;;;;5.30;2.50;;;11.80;99.90;;;;;;5136703;27;20199;-67
2022/05/16 02:42:41;;;;;;;5.17;2.40;;;11.80;99.90;;;;;;5136600;27;20466;-66
2022/05/16 02:45:08;;;;;;;5.83;2.77;;;11.90;99.90;;;;;;5136413;27;20173;-68
2022/05/16 02:47:35;;;;;;;3.60;2.50;;;11.90;99.90;;;;;;5136011;27;20178;-66
2022/05/16 02:50:01;;;;;;;3.67;2.23;;;12.00;99.90;;;;;;5118065;27;20175;-68
2022/05/16 02:52:27;;;;;;;4.60;2.83;;;12.00;99.90;;;;;;5136396;27;20490;-69
2022/05/16 02:54:52;;;;;;;4.87;2.30;;;11.90;99.90;;;;;;5136296;27;20280;-66
2022/05/16 02:57:18;;;;;;;2.80;2.50;;;11.60;99.90;;;;;;5136369;27;20169;-67
2022/05/16 02:59:43;;;;;;;7.07;2.63;;;11.40;99.90;;;;;;5117947;27;20304;-69
2022/05/16 03:02:11;;;;;;;5.00;2.70;;;11.50;99.90;;;;;;5136273;27;20503;-66
2022/05/16 03:04:38;;;;;;;2.37;2.10;;;11.50;99.90;;;;;;5136212;27;20230;-69
2022/05/16 03:07:04;;;;;;;6.00;2.30;;;11.50;99.90;;;;;;5135718;27;20259;-67
2022/05/16 03:09:30;;;;;;;4.10;2.30;;;11.50;99.90;;;;;;5135996;27;20162;-66
2022/05/16 03:11:56;;;;;;;3.67;2.27;;;11.60;99.90;;;;;;5135406;27;20158;-68
2022/05/16 03:14:23;;;;;;;2.43;1.87;;;11.60;99.90;;;;;;5135347;27;20590;-68
2022/05/16 03:16:49;;;;;;;5.60;2.40;;;11.60;99.90;;;;;;5135725;27;20154;-67
2022/05/16 03:19:15;;;;;;;5.13;2.70;;;11.60;99.90;;;;;;5135609;27;20537;-67
2022/05/16 03:21:42;;;;;;;3.43;2.17;;;11.40;99.90;;;;;;5135765;27;20215;-68
2022/05/16 03:24:08;;;;;;;3.93;2.43;;;11.40;99.90;;;;;;5139281;27;20538;-67
2022/05/16 03:26:35;;;;;;;2.83;1.97;;;11.40;99.90;;;;;;5139144;27;20234;-68
2022/05/16 03:29:00;;;;;;;8.03;2.80;;;11.60;99.90;;;;;;5156447;27;20150;-67
2022/05/16 03:31:26;;;;;;;5.07;2.53;;;11.50;99.90;;;;;;5138957;27;20556;-69
2022/05/16 03:33:52;;;;;;;4.80;2.37;;;11.60;99.90;;;;;;5137534;27;20193;-67
2022/05/16 03:36:17;;;;;;;5.87;2.37;;;11.30;99.90;;;;;;5135452;27;20172;-68
2022/05/16 03:41:27;;;;;;;4.97;2.60;;;11.40;99.90;;;;;;5134867;27;20564;-69
2022/05/16 03:43:53;;;;;;;3.90;2.60;;;11.40;99.90;;;;;;5134577;27;20162;-68
2022/05/16 03:46:19;;;;;;;3.33;2.50;;;11.60;99.90;;;;;;5135043;27;20153;-67
2022/05/16 03:48:45;;;;;;;6.00;2.80;;;11.40;99.90;;;;;;5134948;27;20539;-67
2022/05/16 03:51:13;;;;;;;4.83;2.20;;;11.20;99.90;;;;;;5134882;27;20164;-67
2022/05/16 03:53:48;;;;;;;4.23;2.50;;;11.10;99.90;;;;;;5134885;27;20177;-68
2022/05/16 03:56:16;;;;;;;2.87;2.33;;;11.30;99.90;;;;;;5134559;27;20184;-67
2022/05/16 03:58:42;;;;;;;4.63;2.37;;;11.40;99.90;;;;;;5135349;27;20161;-67
2022/05/16 04:01:08;;;;;;;5.10;2.63;;;11.40;99.90;;;;;;5134761;27;20166;-68
2022/05/16 04:03:35;;;;;;;4.23;2.50;;;11.50;99.90;;;;;;5135066;27;20157;-67
2022/05/16 04:06:00;;;;;;;3.27;2.80;;;11.40;99.90;;;;;;5116210;27;20317;-67
2022/05/16 04:08:28;;;;;;;4.30;2.60;;;11.50;99.90;;;;;;5135165;27;20199;-68
2022/05/16 04:10:54;;;;;;;4.57;2.70;;;11.50;99.90;;;;;;5136266;27;20169;-68
2022/05/16 04:13:20;;;;;;;9.13;3.00;;;11.60;99.90;;;;;;5138526;27;20166;-65
2022/05/16 04:15:46;;;;;;;3.20;2.53;;;11.50;99.90;;;;;;5140494;27;20223;-68
2022/05/16 04:18:11;;;;;;;3.03;2.60;;;11.40;99.90;;;;;;5142009;27;20158;-68
2022/05/16 04:20:37;;;;;;;3.73;2.47;;;11.50;99.90;;;;;;5141225;27;20196;-69
2022/05/16 04:23:02;;;;;;;5.93;2.40;;;11.60;99.90;;;;;;5142554;27;20218;-67
2022/05/16 04:25:29;;;;;;;4.17;2.57;;;11.60;99.90;;;;;;5138509;28;20161;-68
2022/05/16 04:27:55;;;;;;;3.33;2.67;;;11.60;99.90;;;;;;5135928;28;20169;-67
2022/05/16 04:30:21;;;;;;;7.67;3.23;;;11.60;99.90;;;;;;5135024;28;20169;-67
2022/05/16 04:32:46;;;;;;;5.07;2.70;;;11.70;99.90;;;;;;5134488;28;20585;-68
2022/05/16 04:35:12;;;;;;;7.97;2.77;;;11.70;99.90;;;;;;5134271;28;20193;-68
2022/05/16 04:37:38;;;;;;;4.13;2.33;;;11.60;99.90;;;;;;5134709;28;20573;-67
2022/05/16 04:40:07;;;;;;;3.20;2.73;;;11.60;99.90;;;;;;5134826;28;20498;-65
2022/05/16 04:42:42;;;;;;;6.20;3.00;;;11.60;99.90;;;;;;5134036;28;20479;-67
2022/05/16 04:45:24;;;;;;;3.83;2.80;;;11.60;99.90;;;;;;5133859;28;20160;-67
2022/05/16 04:47:56;;;;;;;3.33;2.60;;;11.80;99.90;;;;;;5134451;27;20181;-67
2022/05/16 04:50:29;;;;;;;6.73;2.63;;;11.90;99.90;;;;;;5120623;27;20250;-67
2022/05/16 04:52:56;;;;;;;4.93;2.80;;;12.20;99.90;;;;;;5113296;28;20178;-66
2022/05/16 04:55:22;;;;;;;3.23;2.23;;;12.10;99.90;;;;;;5114638;28;20198;-67
2022/05/16 04:57:48;;;;;;;4.27;2.47;;;12.10;99.90;;;;;;5118207;28;20261;-67
2022/05/16 05:00:15;;;;;;;3.60;2.30;;;12.20;99.90;;;;;;5121198;27;20660;-67
2022/05/16 05:02:41;;;;;;;3.63;2.60;;;12.30;99.90;;;;;;5142125;27;20603;-67
2022/05/16 05:05:07;;;;;;;4.43;2.67;;;12.40;99.90;;;;;;5136257;27;20215;-66
2022/05/16 05:07:34;;;;;;;5.33;2.77;;;12.60;99.90;;;;;;5139241;27;20241;-66
2022/05/16 05:15:28;;;;;;;4.23;2.47;;;12.90;99.90;;;;;;5138012;27;20238;-68
2022/05/16 05:17:54;;;;;;;4.67;2.50;;;12.90;99.90;;;;;;5127265;27;20352;-67
2022/05/16 05:20:19;;;;;;;5.77;3.30;;;13.00;99.90;;;;;;5118575;28;20209;-66
2022/05/16 05:22:48;;;;;;;6.30;3.40;;;13.10;99.90;;;;;;5099523;28;20208;-68
2022/05/16 05:25:18;;;;;;;3.33;2.90;;;13.10;99.90;;;;;;5106856;27;20174;-66
2022/05/16 05:27:45;;;;;;;3.97;2.73;;;13.20;99.90;;;;;;5137874;27;20181;-68
2022/05/16 05:30:15;;;;;;;4.87;2.60;;;13.30;99.90;;;;;;5138098;27;20483;-68
2022/05/16 05:32:42;;;;;;;6.07;3.20;;;13.30;99.90;;;;;;5138126;27;20165;-68
2022/05/16 05:35:09;;;;;;;3.73;2.80;;;13.50;99.90;;;;;;5119922;27;20519;-67
2022/05/16 05:37:35;;;;;;;6.43;2.87;;;13.50;99.90;;;;;;5138371;27;20172;-68
2022/05/16 05:40:03;;;;;;;2.77;2.57;;;13.60;99.90;;;;;;5138892;27;20189;-67
2022/05/16 05:42:30;;;;;;;5.40;3.03;;;13.70;99.90;;;;;;5137809;27;20158;-67
2022/05/16 05:44:55;;;;;;;6.57;3.20;;;13.80;99.90;;;;;;5118113;27;20194;-68
2022/05/16 05:47:21;;;;;;;4.57;2.80;;;14.00;99.90;;;;;;5114770;27;20540;-68
2022/05/16 05:49:47;;;;;;;7.60;2.57;;;14.10;99.90;;;;;;5138220;27;20162;-68
2022/05/16 05:52:15;;;;;;;13.40;3.10;;;14.20;99.90;;;;;;5133401;27;20192;-67
2022/05/16 05:54:42;;;;;;;4.23;2.97;;;14.30;99.90;;;;;;5118411;27;20210;-69
2022/05/16 05:57:07;;;;;;;4.77;2.70;;;14.40;99.90;;;;;;5119721;27;20169;-67
2022/05/16 05:59:33;;;;;;;4.37;3.00;;;14.50;99.90;;;;;;5138483;27;20164;-67
2022/05/16 06:01:59;;;;;;;4.17;2.83;;;14.50;99.90;;;;;;5138098;27;20173;-68
2022/05/16 06:04:24;;;;;;;9.23;3.20;;;14.70;99.90;;;;;;5137894;27;20248;-66
2022/05/16 06:06:50;;;;;;;5.63;3.10;;;14.80;99.90;;;;;;5134040;27;20231;-67
2022/05/16 06:09:16;;;;;;;9.27;3.33;;;14.90;99.90;;;;;;5135218;27;20169;-66
2022/05/16 06:11:42;;;;;;;4.60;3.20;;;15.20;99.90;;;;;;5125387;27;20232;-68
2022/05/16 06:14:08;;;;;;;7.77;3.57;;;15.30;99.90;;;;;;5128905;27;20193;-67
2022/05/16 06:16:34;;;;;;;6.70;2.97;;;15.40;99.90;;;;;;5134771;27;20188;-68
2022/05/16 06:19:00;;;;;;;13.60;3.07;;;15.40;99.90;;;;;;5136880;27;20174;-68
2022/05/16 06:21:25;;;;;;;8.73;3.00;;;15.60;99.90;;;;;;5142875;27;20211;-67
2022/05/16 06:23:51;;;;;;;4.53;2.60;;;15.90;99.90;;;;;;5134986;27;20183;-69
2022/05/16 06:26:17;;;;;;;7.03;2.47;;;16.10;99.90;;;;;;5131894;27;20198;-69
2022/05/16 06:28:44;;;;;;;7.50;3.00;;;16.30;99.90;;;;;;5124933;27;20174;-68
2022/05/16 06:31:10;;;;;;;7.10;2.53;;;16.40;99.90;;;;;;5116232;27;20686;-69
2022/05/16 06:33:36;;;;;;;6.33;2.70;;;16.60;99.90;;;;;;5136044;27;20177;-68
2022/05/16 06:36:03;;;;;;;8.67;2.90;;;16.80;99.90;;;;;;5133410;27;20205;-66
2022/05/16 06:38:33;;;;;;;7.33;2.50;;;16.80;99.90;;;;;;5127105;27;20492;-68
2022/05/16 06:41:00;;;;;;;10.43;2.53;;;17.00;99.90;;;;;;5126418;27;20207;-70
2022/05/16 06:43:28;;;;;;;4.43;2.67;;;17.10;99.90;;;;;;5119571;27;20180;-67
2022/05/16 06:45:54;;;;;;;4.23;2.20;;;17.40;99.90;;;;;;5138021;27;20655;-68
2022/05/16 06:48:20;;;;;;;4.88;2.55;;;17.60;99.90;;;;;;5119262;27;20185;-67
2022/05/16 06:50:48;;;;;;;6.65;2.72;;;17.60;99.90;;;;;;5133785;27;20531;-68
2022/05/16 06:53:20;;;;;;;6.25;2.50;;;17.70;99.90;;;;;;5118473;27;20237;-67
2022/05/16 06:55:46;;;;;;;6.35;2.70;;;17.80;99.90;;;;;;5118658;27;20704;-69
2022/05/16 06:58:11;;;;;;;6.70;2.42;;;18.00;99.90;;;;;;5118412;27;20182;-68
2022/05/16 07:00:37;;;;;;;7.65;2.70;;;18.20;99.90;;;;;;5115146;27;20528;-68
2022/05/16 07:03:04;;;;;;;7.35;2.35;;;18.40;99.90;;;;;;5127103;27;20186;-69
2022/05/16 07:05:31;;;;;;;6.03;2.60;;;18.60;99.90;;;;;;5129043;27;20190;-68
2022/05/16 07:07:57;;;;;;;2.58;2.10;;;18.70;99.90;;;;;;5125686;27;20186;-68
2022/05/16 07:10:26;;;;;;;4.10;2.40;;;18.80;99.90;;;;;;5129841;27;20169;-68
2022/05/16 07:12:52;;;;;;;5.40;2.25;;;19.10;99.90;;;;;;5124989;27;20181;-70
2022/05/16 07:15:19;;;;;;;4.45;2.10;;;19.20;99.90;;;;;;5137547;27;20263;-67
2022/05/16 07:17:45;;;;;;;5.95;2.30;;;19.50;99.90;;;;;;5117832;27;20174;-68
2022/05/16 07:20:11;;;;;;;10.20;2.78;;;19.70;99.90;;;;;;5124986;27;20178;-68
2022/05/16 07:22:42;;;;;;;3.10;1.90;;;20.00;99.90;;;;;;5148649;27;20268;-68
2022/05/16 07:25:08;;;;;;;4.15;2.22;;;20.20;99.90;;;;;;5130340;27;20181;-70
2022/05/16 07:30:19;;;;;;;8.82;2.53;;;20.30;99.90;;;;;;5119810;27;20185;-69
2022/05/16 07:32:46;;;;;;;3.17;2.28;;;20.60;99.60;;;;;;5117837;27;20176;-69
2022/05/16 07:35:22;;;;;;;4.82;2.20;;;20.40;98.60;;;;;;5126061;27;20197;-68
2022/05/16 07:37:48;;;;;;;4.07;2.00;;;20.20;99.70;;;;;;5122792;27;20234;-67
2022/05/16 07:40:16;;;;;;;5.72;2.45;;;20.60;99.90;;;;;;5129254;27;20597;-67
2022/05/16 07:42:42;;;;;;;5.85;3.33;;;20.80;98.50;;;;;;5124874;27;20174;-67
2022/05/16 07:45:08;;;;;;;4.93;2.47;;;21.00;98.10;;;;;;5120555;27;20184;-68
2022/05/16 07:47:34;;;;;;;2.60;1.98;;;21.20;97.30;;;;;;5131090;27;20174;-68
2022/05/16 07:50:00;;;;;;;3.22;2.50;;;21.10;96.30;;;;;;5127812;27;20193;-69
2022/05/16 07:52:27;;;;;;;4.57;2.13;;;21.20;96.70;;;;;;5122376;27;20182;-68
2022/05/16 07:54:53;;;;;;;7.10;2.33;;;21.30;97.20;;;;;;5113087;28;20198;-69
2022/05/16 07:57:19;;;;;;;3.65;1.80;;;21.40;95.20;;;;;;5122637;27;20256;-68
2022/05/16 07:59:46;;;;;;;4.15;2.42;;;21.40;94.50;;;;;;5128327;27;20188;-68
2022/05/16 08:02:13;;;;;;;6.50;2.20;;;21.60;94.40;;;;;;5120703;27;20260;-68
2022/05/16 08:04:39;;;;;;;2.38;1.98;;;21.70;93.70;;;;;;5132658;27;20248;-69
2022/05/16 08:07:05;;;;;;;2.22;2.00;;;21.80;93.50;;;;;;5119595;27;20233;-68
2022/05/16 08:12:30;;;;;;;4.13;2.40;;;21.90;93.00;;;;;;5117915;27;20180;-67
2022/05/16 08:14:56;;;;;;;4.22;2.17;;;22.20;90.90;;;;;;5137204;27;20208;-68
2022/05/16 08:17:22;;;;;;;4.13;2.50;;;22.10;91.20;;;;;;5128443;27;20260;-68
2022/05/16 08:19:48;;;;;;;12.88;2.30;;;22.30;91.00;;;;;;5123121;27;20189;-66
2022/05/16 08:22:15;;;;;;;6.10;2.13;;;22.40;90.20;;;;;;5130949;27;20310;-68
2022/05/16 08:24:41;;;;;;;3.13;1.90;;;22.50;89.50;;;;;;5127418;27;20174;-68
2022/05/16 08:27:07;;;;;;;4.45;2.10;;;22.50;88.40;;;;;;5121984;28;20576;-68
2022/05/16 08:29:33;;;;;;;6.95;2.30;;;22.40;88.10;;;;;;5120058;28;20170;-68
2022/05/16 08:31:59;;;;;;;2.92;1.90;;;22.70;86.40;;;;;;5124280;28;20528;-68
2022/05/16 08:34:25;;;;;;;12.07;2.53;;;22.90;86.30;;;;;;5126595;28;20656;-69
2022/05/16 08:39:55;;;;;;;6.03;2.35;;;23.10;84.20;;;;;;5119722;27;20204;-69
2022/05/16 08:42:50;;;;;;;5.55;2.25;;;23.10;83.20;;;;;;5120291;27;20221;-69
2022/05/16 08:45:21;;;;;;;5.93;2.30;;;23.50;81.20;;;;;;5124871;28;20197;-68
2022/05/16 08:47:53;;;;;;;3.70;2.20;;;23.70;79.40;;;;;;5134855;27;20186;-69
2022/05/16 08:50:39;;;;;;;3.10;2.10;;;23.60;78.60;;;;;;5140745;27;20539;-69
2022/05/16 08:53:33;;;;;;;3.35;2.00;;;23.70;78.90;;;;;;5128786;28;20234;-68
2022/05/16 08:56:03;;;;;;;4.22;2.25;;;23.80;79.90;;;;;;5116639;28;20178;-68
2022/05/16 08:58:55;;;;;;;4.40;1.95;;;23.70;76.70;;;;;;5114304;28;20178;-69
2022/05/16 09:01:27;;;;;;;4.65;2.13;;;24.00;78.10;;;;;;5096559;28;20538;-70
2022/05/16 09:04:01;;;;;;;4.13;2.10;;;24.10;74.50;;;;;;5125335;28;20189;-68
2022/05/16 09:06:35;;;;;;;5.90;2.75;;;24.30;72.80;;;;;;5126104;28;20221;-70
2022/05/16 09:09:11;;;;;;;5.00;2.15;;;24.40;71.40;;;;;;5128303;28;20178;-68
2022/05/16 09:11:58;;;;;;;5.40;2.40;;;24.30;66.80;;;;;;5125525;28;20563;-67
2022/05/16 09:14:45;;;;;;;4.47;2.40;;;24.50;67.50;;;;;;5129781;27;20597;-66
2022/05/16 09:17:37;;;;;;;3.35;2.30;;;24.80;66.90;;;;;;5130920;28;20177;-69
2022/05/16 09:20:32;;;;;;;7.30;3.03;;;24.90;66.60;;;;;;5123796;28;20254;-68
2022/05/16 09:23:22;;;;;;;4.80;2.28;;;25.00;64.10;;;;;;5129930;28;20178;-71
2022/05/16 09:26:18;;;;;;;4.50;2.17;;;24.90;64.90;;;;;;5133630;28;20264;-68
2022/05/16 09:28:55;;;;;;;3.50;2.28;;;25.00;63.30;;;;;;5128898;28;20170;-69
2022/05/16 09:31:43;;;;;;;4.90;2.30;;;25.10;62.90;;;;;;5121224;28;20193;-67
2022/05/16 09:34:10;;;;;;;5.00;2.40;;;25.20;61.70;;;;;;5125759;28;20675;-70
2022/05/16 09:36:41;;;;;;;8.80;2.60;;;25.00;61.00;;;;;;5118026;28;20178;-69
2022/05/16 09:39:09;;;;;;;8.07;2.47;;;25.10;61.10;;;;;;5117133;27;20276;-68
2022/05/16 09:41:43;;;;;;;4.70;2.13;;;25.30;60.80;;;;;;5120533;27;20264;-69
2022/05/16 09:44:22;;;;;;;4.50;2.22;;;25.00;60.30;;;;;;5123379;27;20664;-70
2022/05/16 09:46:49;;;;;;;6.90;2.67;;;25.40;60.20;;;;;;5123083;27;20198;-68
2022/05/16 09:49:26;;;;;;;6.13;2.38;;;25.50;60.60;;;;;;5127718;27;20174;-68
2022/05/16 09:51:54;;;;;;;4.13;2.03;;;25.50;58.60;;;;;;5132578;27;20178;-67
2022/05/16 09:54:35;;;;;;;3.92;2.28;;;25.60;59.80;;;;;;5120346;27;20280;-68
2022/05/16 09:57:03;;;;;;;5.30;2.55;;;25.80;59.40;;;;;;5117268;27;20173;-68
2022/05/16 09:59:48;;;;;;;6.80;2.40;;;25.80;58.80;;;;;;5141116;27;21053;-69
2022/05/16 10:02:22;;;;;;;7.28;2.40;;;26.10;58.40;;;;;;5130671;27;20193;-69
2022/05/16 10:04:51;;;;;;;3.60;2.22;;;25.80;58.00;;;;;;5115544;28;20182;-68
2022/05/16 10:07:22;;;;;;;5.25;2.22;;;26.10;58.90;;;;;;5119792;27;20221;-69
2022/05/16 10:09:52;;;;;;;2.85;2.15;;;26.00;57.80;;;;;;5120162;27;20331;-69
2022/05/16 10:12:20;;;;;;;7.68;2.55;;;26.20;57.00;;;;;;5115464;27;20573;-68
2022/05/16 10:14:46;;;;;;;5.53;2.25;;;26.30;56.50;;;;;;5131143;27;20205;-66
2022/05/16 10:17:30;;;;;;;6.38;2.40;;;26.30;56.20;;;;;;5130116;27;20193;-68
2022/05/16 10:20:00;;;;;;;6.63;2.92;;;26.30;56.50;;;;;;5128321;27;20506;-69
2022/05/16 10:22:27;;;;;;;5.05;2.53;;;26.40;55.50;;;;;;5104602;27;20261;-68
2022/05/16 10:24:55;;;;;;;7.57;2.47;;;26.40;55.90;;;;;;5128979;27;20273;-68
2022/05/16 10:27:34;;;;;;;5.10;2.35;;;26.60;56.00;;;;;;5123708;27;20174;-68
2022/05/16 10:30:06;;;;;;;8.30;2.17;;;26.60;55.20;;;;;;5115512;28;20184;-67
2022/05/16 10:35:33;;;;;;;4.28;2.42;;;27.10;54.30;;;;;;5121208;27;20259;-69
2022/05/16 10:38:02;;;;;;;5.25;2.30;;;26.90;54.60;;;;;;5119632;27;20188;-68
2022/05/16 10:40:30;;;;;;;6.13;2.35;;;27.00;53.70;;;;;;5131727;27;20181;-69
2022/05/16 10:43:23;;;;;;;4.45;2.30;;;26.90;52.90;;;;;;5124506;27;20181;-70
2022/05/16 10:45:55;;;;;;;6.38;2.38;;;27.20;53.10;;;;;;5134877;27;20177;-67
2022/05/16 10:48:51;;;;;;;4.78;2.20;;;27.20;51.70;;;;;;5110737;27;20202;-67
2022/05/16 10:51:41;;;;;;;4.75;2.20;;;27.00;51.20;;;;;;5111169;27;20288;-69
2022/05/16 10:54:11;;;;;;;7.50;2.28;;;27.00;51.30;;;;;;5118843;27;20201;-69
2022/05/16 10:56:48;;;;;;;9.00;2.50;;;27.10;51.30;;;;;;5119231;27;20178;-69
2022/05/16 10:59:22;;;;;;;5.63;2.40;;;26.80;51.60;;;;;;5128932;27;20264;-69
2022/05/16 11:01:55;;;;;;;6.47;2.28;;;27.00;52.70;;;;;;5127474;27;20245;-68
2022/05/16 11:04:42;;;;;;;5.55;2.38;;;27.40;51.20;;;;;;5118848;27;20209;-69
2022/05/16 11:07:21;;;;;;;5.93;2.47;;;27.00;50.10;;;;;;5121646;27;20293;-68
2022/05/16 11:09:55;;;;;;;4.93;2.75;;;27.20;50.70;;;;;;5122912;27;20226;-68
2022/05/16 11:12:35;;;;;;;6.63;2.33;;;27.50;49.80;;;;;;5124612;27;20203;-69
2022/05/16 11:15:21;;;;;;;6.28;2.58;;;27.40;48.60;;;;;;5115452;28;20197;-68
2022/05/16 11:18:19;;;;;;;5.72;2.67;;;27.60;47.40;;;;;;5115722;28;20166;-68
2022/05/16 11:20:53;;;;;;;6.72;2.83;;;28.00;46.90;;;;;;5115584;28;20529;-69
2022/05/16 11:23:47;;;;;;;4.85;2.45;;;28.10;47.50;;;;;;5115785;28;20249;-70
2022/05/16 11:26:19;;;;;;;4.07;2.58;;;27.90;45.00;;;;;;5115485;28;20602;-69
2022/05/16 11:31:58;;;;;;;4.75;1.95;;;27.80;42.90;;;;;;5114744;28;20287;-69
2022/05/16 11:34:57;;;;;;;5.47;3.72;;;27.80;43.90;;;;;;5116406;27;20193;-68
2022/05/16 11:38:01;;;;;;;4.45;2.55;;;27.90;44.70;;;;;;5113122;28;20186;-68
2022/05/16 11:40:46;;;;;;;6.93;2.95;;;27.50;46.00;;;;;;5124304;27;20176;-69
2022/05/16 11:43:28;;;;;;;8.00;2.75;;;27.70;46.70;;;;;;5149809;27;20256;-69
2022/05/16 11:46:23;;;;;;;5.95;3.13;;;27.70;47.80;;;;;;5135400;27;20165;-68
2022/05/16 11:49:09;;;;;;;5.05;2.58;;;27.30;48.10;;;;;;5135841;27;20262;-70
2022/05/16 11:52:03;;;;;;;7.53;2.80;;;27.00;49.10;;;;;;5135220;27;20164;-70
2022/05/16 11:54:36;;;;;;;5.65;2.60;;;27.40;48.80;;;;;;5151391;27;20243;-70
2022/05/16 12:02:33;;;;;;;4.75;2.33;;;27.10;49.20;;;;;;5115726;28;20174;-68
2022/05/16 12:05:01;;;;;;;5.32;2.47;;;27.00;49.20;;;;;;5114644;28;20158;-69
2022/05/16 12:07:35;;;;;;;6.00;2.10;;;26.90;49.30;;;;;;5134397;27;20693;-69
2022/05/16 12:10:10;;;;;;;7.00;2.60;;;26.90;49.30;;;;;;5116756;28;20166;-69
2022/05/16 12:12:42;;;;;;;9.77;2.72;;;26.90;50.00;;;;;;5111778;28;20177;-69
2022/05/16 12:15:14;;;;;;;3.67;2.30;;;27.20;50.00;;;;;;5113853;28;20201;-69
2022/05/16 12:17:56;;;;;;;5.05;2.83;;;27.20;50.40;;;;;;5113353;28;20182;-69
2022/05/16 12:20:43;;;;;;;8.98;2.75;;;27.10;49.30;;;;;;5115286;28;20290;-69
2022/05/16 12:23:11;;;;;;;8.45;3.67;;;27.40;49.90;;;;;;5114278;28;20612;-68
2022/05/16 12:25:38;;;;;;;5.85;3.65;;;27.50;49.70;;;;;;5115030;28;20210;-69
2022/05/16 12:28:13;;;;;;;4.63;2.47;;;27.90;49.30;;;;;;5115861;28;20253;-69
2022/05/16 12:30:44;;;;;;;10.43;3.90;;;27.80;47.60;;;;;;5115090;28;20157;-70
2022/05/16 12:33:29;;;;;;;8.48;2.78;;;28.10;47.90;;;;;;5118433;28;20174;-69
2022/05/16 12:35:54;;;;;;;7.38;2.70;;;28.10;47.00;;;;;;5135901;28;20189;-67
2022/05/16 12:38:22;;;;;;;6.38;2.45;;;28.20;46.70;;;;;;5136737;28;20242;-68
2022/05/16 12:40:54;;;;;;;6.07;2.35;;;28.30;46.50;;;;;;5137838;28;20153;-70
2022/05/16 12:43:31;;;;;;;5.85;2.60;;;28.40;46.60;;;;;;5124315;28;20512;-69
2022/05/16 12:46:09;;;;;;;5.90;2.25;;;28.40;46.50;;;;;;5143384;28;20226;-69
2022/05/16 12:48:47;;;;;;;5.05;2.70;;;28.50;46.40;;;;;;5145197;28;20161;-69
2022/05/16 12:51:18;;;;;;;6.38;2.47;;;28.40;45.50;;;;;;5137811;28;20161;-68
2022/05/16 12:53:55;;;;;;;4.10;2.25;;;28.40;46.20;;;;;;5134545;28;20157;-69
2022/05/16 12:56:43;;;;;;;7.00;2.58;;;28.60;46.00;;;;;;5134984;28;20192;-69
2022/05/16 12:59:45;;;;;;;5.82;2.55;;;28.80;45.60;;;;;;5135384;28;20158;-69
2022/05/16 13:02:15;;;;;;;6.55;2.70;;;29.20;45.60;;;;;;5134697;28;20173;-69
2022/05/16 13:05:04;;;;;;;8.35;2.90;;;29.00;44.90;;;;;;5116417;28;20181;-70
2022/05/16 13:07:56;;;;;;;5.43;3.75;;;28.80;44.70;;;;;;5116533;28;20660;-71
2022/05/16 13:10:37;;;;;;;6.82;2.47;;;28.50;44.80;;;;;;5135255;28;20195;-71
2022/05/16 13:13:09;;;;;;;4.10;2.17;;;28.60;45.00;;;;;;5134488;28;20198;-70
2022/05/16 13:15:51;;;;;;;5.82;2.60;;;28.60;44.80;;;;;;5116479;28;20247;-69
2022/05/16 13:18:30;;;;;;;4.07;2.38;;;28.50;43.80;;;;;;5139572;27;20184;-69
2022/05/16 13:21:01;;;;;;;4.35;2.50;;;28.40;44.40;;;;;;5139983;27;20165;-69
2022/05/16 13:23:27;;;;;;;5.60;2.40;;;28.30;44.20;;;;;;5140016;27;20303;-70
2022/05/16 13:31:35;;;;;;;2.97;2.35;;;28.30;44.90;;;;;;5142546;27;20161;-70
2022/05/16 13:34:04;;;;;;;4.78;2.70;;;28.40;43.70;;;;;;5160346;27;20228;-69
2022/05/16 13:36:30;;;;;;;11.55;3.05;;;28.60;43.80;;;;;;5144393;27;20165;-69
2022/05/16 13:39:03;;;;;;;8.68;2.65;;;28.60;43.90;;;;;;5125332;27;20173;-71
2022/05/16 13:41:31;;;;;;;3.05;1.83;;;28.70;43.80;;;;;;5139481;27;20162;-70
2022/05/16 13:43:58;;;;;;;4.07;2.50;;;28.80;44.00;;;;;;5117332;28;20162;-71